Latest Coastal Weather Observations for Port Kembla Harbour

IDN60701

Issued at 11:31 pm EDT Sunday 29 March 2015 (issued every 10 minutes, with the page automatically refreshed every 10 minutes)

About coastal observations | Map of coastal stations | Coastal observations for NSW | Marine services | Other Formats
Station Details ID: 068253 Name: PORT KEMBLA NTC AWS Lat: -34.47 Lon: 150.91 Height: 0.0 m
Data from the previous 72 hours. | See also: Recent months for locations in New South Wales
Date/Time
EDT
Temp

°C
Wind Pressure Rain
since 9am
mm
Weather Cloud Vis
km
Sea
Height
m
Swell
Dir
 
Speed
knots
Gust
knots
hPa Trend Height
m
Period
s
Dir
29/11:30pm 19.3 WSW 3 4 1022.8 - - - - - - - - -
29/11:00pm 19.5 WSW 3 5 1022.9 - - - - - - - - -
29/10:30pm 19.8 W 3 4 1022.9 - - - - - - - - -
29/09:30pm 21.5 NNW 3 4 1022.2 - - - - - - - - -
29/09:00pm 21.4 N 4 6 1021.8 - - - - - - - - -
29/08:30pm 21.5 N 5 8 1021.6 - - - - - - - - -
29/08:00pm 21.9 NNE 10 14 1021.3 - - - - - - - - -
29/07:30pm 22.0 NNE 11 14 1020.9 - - - - - - - - -
29/07:00pm 22.1 NNE 12 15 1020.6 - - - - - - - - -
29/06:30pm 22.1 NE 11 15 1020.4 - - - - - - - - -
29/06:00pm 22.1 NE 11 15 1020.3 - - - - - - - - -
29/05:30pm 21.9 NE 11 14 1020.2 - - - - - - - - -
29/05:00pm 21.8 NE 12 16 1020.0 - - - - - - - - -
29/04:30pm 21.7 NE 12 16 1020.2 - - - - - - - - -
29/04:00pm 21.7 NE 13 17 1020.0 - - - - - - - - -
29/03:30pm 21.8 NE 13 18 1020.1 - - - - - - - - -
29/03:00pm 21.9 NE 13 18 1020.2 - - - - - - - - -
29/02:30pm 21.7 NE 14 18 1020.4 - - - - - - - - -
29/02:00pm 22.0 NE 13 17 1020.7 - - - - - - - - -
29/01:30pm 21.9 NE 11 16 1021.0 - - - - - - - - -
29/01:00pm 22.2 NE 10 13 1021.5 - - - - - - - - -
29/12:30pm 21.5 NE 10 14 1021.8 - - - - - - - - -
29/12:00pm 21.6 NE 8 10 1022.0 - - - - - - - - -
29/11:30am 21.4 NNE 8 11 1022.4 - - - - - - - - -
29/11:00am 21.4 NNE 10 16 1022.7 - - - - - - - - -
29/10:30am 20.9 N 10 13 1022.9 - - - - - - - - -
29/10:00am 20.3 NNW 8 12 1022.9 - - - - - - - - -
29/09:30am 19.9 NNW 9 13 1022.8 - - - - - - - - -
29/09:00am 19.6 NNW 10 14 1022.6 - - - - - - - - -
29/08:30am 19.1 NW 8 11 1022.4 - - - - - - - - -
29/08:00am 18.5 NNW 6 8 1022.1 - - - - - - - - -
29/07:30am 18.6 N 4 7 1022.1 - - - - - - - - -
29/07:00am 18.2 NNW 6 8 1021.8 - - - - - - - - -
29/06:30am 18.1 NNW 4 6 1021.5 - - - - - - - - -
29/06:00am 17.9 NW 6 7 1021.3 - - - - - - - - -
29/05:30am 17.1 WSW 2 3 1021.1 - - - - - - - - -
29/05:00am 16.2 WSW 3 4 1021.3 - - - - - - - - -
29/04:30am 15.7 SW 3 5 1021.3 - - - - - - - - -
29/04:00am 16.1 WSW 5 6 1021.4 - - - - - - - - -
29/03:30am 16.0 SW 5 6 1021.5 - - - - - - - - -
29/03:00am 16.2 WSW 5 6 1021.7 - - - - - - - - -
29/02:30am 16.1 SW 4 5 1022.0 - - - - - - - - -
29/02:00am 16.4 WSW 3 4 1022.2 - - - - - - - - -
29/01:30am 16.4 WSW 4 5 1022.5 - - - - - - - - -
29/01:00am 16.4 WSW 3 4 1022.9 - - - - - - - - -
29/12:30am 16.2 W 5 6 1022.9 - - - - - - - - -
29/12:00am 16.7 SW 4 5 1022.9 - - - - - - - - -
 
Date/Time
EDT
Temp

°C
Wind Pressure Rain
since 9am
mm
Weather Cloud Vis
km
Sea
Height
m
Swell
Dir
 
Speed
knots
Gust
knots
hPa Trend Height
m
Period
s
Dir
28/11:30pm 17.2 SW 3 5 1023.0 - - - - - - - - -
28/11:00pm 17.2 WSW 4 5 1023.3 - - - - - - - - -
28/10:30pm 17.8 WSW 5 6 1023.5 - - - - - - - - -
28/10:00pm 17.8 WSW 5 7 1023.4 - - - - - - - - -
28/09:30pm 19.4 SE 2 5 1023.4 - - - - - - - - -
28/09:00pm 19.4 SE 3 5 1023.0 - - - - - - - - -
28/08:30pm 19.4 SE 4 8 1022.6 - - - - - - - - -
28/08:00pm 19.6 SE 5 8 1022.5 - - - - - - - - -
28/07:30pm 19.6 SE 5 8 1022.4 - - - - - - - - -
28/07:00pm 19.5 SSE 4 8 1022.1 - - - - - - - - -
28/06:30pm 19.7 SE 4 7 1022.0 - - - - - - - - -
28/06:00pm 19.6 SE 6 9 1021.8 - - - - - - - - -
28/05:30pm 19.8 SSE 5 8 1021.6 - - - - - - - - -
28/05:00pm 20.0 SE 7 10 1021.5 - - - - - - - - -
28/04:30pm 19.8 SE 7 10 1021.4 - - - - - - - - -
28/04:00pm 19.9 SE 7 11 1021.6 - - - - - - - - -
28/03:30pm 20.0 SE 7 11 1021.7 - - - - - - - - -
28/03:00pm 20.0 SE 7 10 1021.9 - - - - - - - - -
28/02:30pm 19.9 SE 7 11 1022.0 - - - - - - - - -
28/02:00pm 19.9 SE 9 13 1022.2 - - - - - - - - -
28/01:30pm 20.0 SE 8 12 1022.4 - - - - - - - - -
28/01:00pm 19.9 SE 8 12 1022.8 - - - - - - - - -
28/12:30pm 20.2 SE 7 12 1023.1 - - - - - - - - -
28/12:00pm 20.0 SE 7 12 1023.2 - - - - - - - - -
28/11:30am 20.3 S 5 11 1023.2 - - - - - - - - -
28/11:00am 20.6 S 4 10 1023.1 - - - - - - - - -
28/10:30am 19.3 WSW 7 13 1023.1 - - - - - - - - -
28/10:00am 19.2 WSW 6 9 1023.0 - - - - - - - - -
28/09:30am 18.7 WSW 7 11 1023.0 - - - - - - - - -
28/09:00am 18.4 WSW 6 9 1022.7 - - - - - - - - -
28/08:30am 17.5 W 5 6 1022.4 - - - - - - - - -
28/08:00am 16.8 W 5 7 1021.9 - - - - - - - - -
28/07:30am 16.0 WSW 5 6 1021.6 - - - - - - - - -
28/07:00am 16.0 WSW 6 7 1021.2 - - - - - - - - -
28/06:30am 16.2 W 6 7 1020.9 - - - - - - - - -
28/06:00am 16.3 WSW 6 7 1020.6 - - - - - - - - -
28/05:30am 16.7 WSW 5 6 1020.1 - - - - - - - - -
28/05:00am 16.8 WSW 5 6 1019.8 - - - - - - - - -
28/04:30am 17.2 WSW 6 7 1019.6 - - - - - - - - -
28/04:00am 17.1 WSW 7 9 1019.5 - - - - - - - - -
28/03:30am 17.5 WSW 8 11 1019.5 - - - - - - - - -
28/03:00am 17.4 W 6 8 1019.6 - - - - - - - - -
28/02:30am 17.8 WSW 8 10 1019.7 - - - - - - - - -
28/02:00am 18.0 WSW 9 11 1019.6 - - - - - - - - -
28/01:30am 18.0 WSW 9 12 1019.6 - - - - - - - - -
28/01:00am 18.7 WSW 12 16 1019.6 - - - - - - - - -
28/12:30am 18.9 WSW 14 20 1019.7 - - - - - - - - -
28/12:00am 18.6 WSW 10 12 1019.8 - - - - - - - - -
 
Date/Time
EDT
Temp

°C
Wind Pressure Rain
since 9am
mm
Weather Cloud Vis
km
Sea
Height
m
Swell
Dir
 
Speed
knots
Gust
knots
hPa Trend Height
m
Period
s
Dir
27/11:30pm 18.9 W 11 13 1019.8 - - - - - - - - -
27/11:00pm 19.2 W 12 17 1019.7 - - - - - - - - -
27/10:30pm 19.5 W 12 17 1019.6 - - - - - - - - -
27/10:00pm 19.9 W 9 13 1019.5 - - - - - - - - -
27/09:30pm 20.3 W 10 15 1019.4 - - - - - - - - -
27/09:00pm 20.3 W 10 14 1019.0 - - - - - - - - -
27/08:30pm 20.9 W 13 18 1018.5 - - - - - - - - -
27/08:00pm 21.2 W 10 15 1018.2 - - - - - - - - -
27/07:30pm 21.5 W 9 14 1017.6 - - - - - - - - -
27/07:00pm 22.1 W 8 12 1017.2 - - - - - - - - -
27/06:30pm 22.9 W 11 16 1016.9 - - - - - - - - -
27/06:00pm 23.4 W 11 20 1016.6 - - - - - - - - -
27/05:30pm 23.5 W 16 23 1016.2 - - - - - - - - -
27/05:00pm 23.6 W 17 24 1016.1 - - - - - - - - -
27/04:30pm 23.6 WSW 16 23 1016.1 - - - - - - - - -
27/04:00pm 23.5 WSW 12 19 1016.3 - - - - - - - - -
27/03:30pm 23.5 SW 10 16 1016.3 - - - - - - - - -
27/03:00pm 23.6 WSW 15 22 1016.4 - - - - - - - - -
27/02:35pm 23.0 WSW 15 26 1016.6 - - - - - - - - -
27/02:30pm 23.0 WSW 17 26 1016.6 - - - - - - - - -
27/02:17pm 23.0 WSW 16 27 1016.8 - - - - - - - - -
27/02:00pm 23.0 WSW 18 26 1017.3 - - - - - - - - -
27/01:58pm 23.0 WSW 16 26 1017.3 - - - - - - - - -
27/01:30pm 22.7 WSW 13 18 1017.6 - - - - - - - - -
27/01:00pm 22.6 W 16 23 1017.8 - - - - - - - - -
27/12:30pm 21.8 W 19 27 1018.0 - - - - - - - - -
27/12:00pm 21.1 W 20 27 1018.6 - - - - - - - - -
27/11:30am 20.5 W 20 27 1018.8 - - - - - - - - -
27/11:00am 20.1 W 21 25 1018.9 - - - - - - - - -

Other Formats:

Comma delimited format used in spreadsheet applications
http://www.bom.gov.au/fwo/IDN60701/IDN60701.95745.axf

JavaScript Object Notation format (JSON) in row-major order
http://www.bom.gov.au/fwo/IDN60701/IDN60701.95745.json